sensor_id;sensor_type;location;lat;lon;timestamp;P1;durP1;ratioP1;P2;durP2;ratioP2
71046;SDS011;58703;48.978;8.982;2022-08-19T00:00:18;17.60;;;11.77;;
71046;SDS011;58703;48.978;8.982;2022-08-19T00:02:44;12.23;;;10.80;;
71046;SDS011;58703;48.978;8.982;2022-08-19T00:05:11;14.15;;;11.85;;
71046;SDS011;58703;48.978;8.982;2022-08-19T00:07:38;14.97;;;11.83;;
71046;SDS011;58703;48.978;8.982;2022-08-19T00:10:05;13.52;;;11.20;;
71046;SDS011;58703;48.978;8.982;2022-08-19T00:12:31;13.32;;;10.90;;
71046;SDS011;58703;48.978;8.982;2022-08-19T00:14:57;13.10;;;11.70;;
71046;SDS011;58703;48.978;8.982;2022-08-19T00:17:23;13.75;;;11.82;;
71046;SDS011;58703;48.978;8.982;2022-08-19T00:19:48;15.57;;;11.53;;
71046;SDS011;58703;48.978;8.982;2022-08-19T00:22:14;16.03;;;12.10;;
71046;SDS011;58703;48.978;8.982;2022-08-19T00:24:43;14.25;;;11.48;;
71046;SDS011;58703;48.978;8.982;2022-08-19T00:27:10;13.98;;;11.10;;
71046;SDS011;58703;48.978;8.982;2022-08-19T00:29:37;14.65;;;11.18;;
71046;SDS011;58703;48.978;8.982;2022-08-19T00:32:03;14.40;;;11.60;;
71046;SDS011;58703;48.978;8.982;2022-08-19T00:34:29;14.70;;;11.13;;
71046;SDS011;58703;48.978;8.982;2022-08-19T00:36:55;14.40;;;10.77;;
71046;SDS011;58703;48.978;8.982;2022-08-19T00:39:22;14.23;;;10.55;;
71046;SDS011;58703;48.978;8.982;2022-08-19T00:41:48;13.68;;;10.85;;
71046;SDS011;58703;48.978;8.982;2022-08-19T00:44:17;15.43;;;11.03;;
71046;SDS011;58703;48.978;8.982;2022-08-19T00:46:46;15.20;;;11.82;;
71046;SDS011;58703;48.978;8.982;2022-08-19T00:49:22;13.75;;;11.27;;
71046;SDS011;58703;48.978;8.982;2022-08-19T00:52:00;13.30;;;11.10;;
71046;SDS011;58703;48.978;8.982;2022-08-19T00:54:29;13.73;;;11.57;;
71046;SDS011;58703;48.978;8.982;2022-08-19T00:56:57;15.47;;;11.07;;
71046;SDS011;58703;48.978;8.982;2022-08-19T00:59:24;13.95;;;10.68;;
71046;SDS011;58703;48.978;8.982;2022-08-19T01:01:50;14.10;;;10.85;;
71046;SDS011;58703;48.978;8.982;2022-08-19T01:04:17;13.60;;;10.75;;
71046;SDS011;58703;48.978;8.982;2022-08-19T01:06:42;15.53;;;11.70;;
71046;SDS011;58703;48.978;8.982;2022-08-19T01:09:08;20.23;;;12.02;;
71046;SDS011;58703;48.978;8.982;2022-08-19T01:11:35;14.70;;;11.53;;
71046;SDS011;58703;48.978;8.982;2022-08-19T01:14:07;15.75;;;11.13;;
71046;SDS011;58703;48.978;8.982;2022-08-19T01:16:34;18.15;;;12.23;;
71046;SDS011;58703;48.978;8.982;2022-08-19T01:19:00;15.85;;;11.88;;
71046;SDS011;58703;48.978;8.982;2022-08-19T01:21:30;16.10;;;11.55;;
71046;SDS011;58703;48.978;8.982;2022-08-19T01:23:59;14.87;;;11.63;;
71046;SDS011;58703;48.978;8.982;2022-08-19T01:26:25;15.13;;;11.20;;
71046;SDS011;58703;48.978;8.982;2022-08-19T01:28:53;16.13;;;12.10;;
71046;SDS011;58703;48.978;8.982;2022-08-19T01:31:21;15.82;;;12.05;;
71046;SDS011;58703;48.978;8.982;2022-08-19T01:33:51;15.10;;;11.10;;
71046;SDS011;58703;48.978;8.982;2022-08-19T01:36:25;17.70;;;13.10;;
71046;SDS011;58703;48.978;8.982;2022-08-19T01:39:00;17.83;;;13.15;;
71046;SDS011;58703;48.978;8.982;2022-08-19T01:41:27;18.60;;;12.88;;
71046;SDS011;58703;48.978;8.982;2022-08-19T01:43:53;18.93;;;13.13;;
71046;SDS011;58703;48.978;8.982;2022-08-19T01:46:19;17.80;;;13.60;;
71046;SDS011;58703;48.978;8.982;2022-08-19T01:48:45;17.27;;;12.17;;
71046;SDS011;58703;48.978;8.982;2022-08-19T01:51:11;16.15;;;12.68;;
71046;SDS011;58703;48.978;8.982;2022-08-19T01:53:38;19.30;;;13.15;;
71046;SDS011;58703;48.978;8.982;2022-08-19T01:56:04;19.73;;;12.77;;
71046;SDS011;58703;48.978;8.982;2022-08-19T01:58:32;20.60;;;13.20;;
71046;SDS011;58703;48.978;8.982;2022-08-19T02:01:02;17.13;;;12.70;;
71046;SDS011;58703;48.978;8.982;2022-08-19T02:03:29;19.15;;;14.40;;
71046;SDS011;58703;48.978;8.982;2022-08-19T02:05:56;19.92;;;13.95;;
71046;SDS011;58703;48.978;8.982;2022-08-19T02:08:25;21.10;;;14.67;;
71046;SDS011;58703;48.978;8.982;2022-08-19T02:10:54;20.15;;;14.52;;
71046;SDS011;58703;48.978;8.982;2022-08-19T02:13:20;20.30;;;13.98;;
71046;SDS011;58703;48.978;8.982;2022-08-19T02:15:46;20.77;;;13.13;;
71046;SDS011;58703;48.978;8.982;2022-08-19T02:18:11;19.73;;;14.70;;
71046;SDS011;58703;48.978;8.982;2022-08-19T02:20:37;17.70;;;14.10;;
71046;SDS011;58703;48.978;8.982;2022-08-19T02:23:05;25.80;;;14.93;;
71046;SDS011;58703;48.978;8.982;2022-08-19T02:25:32;21.63;;;15.50;;
71046;SDS011;58703;48.978;8.982;2022-08-19T02:27:57;20.30;;;14.50;;
71046;SDS011;58703;48.978;8.982;2022-08-19T02:30:24;22.17;;;15.32;;
71046;SDS011;58703;48.978;8.982;2022-08-19T02:32:50;21.87;;;14.77;;
71046;SDS011;58703;48.978;8.982;2022-08-19T02:35:16;21.65;;;16.35;;
71046;SDS011;58703;48.978;8.982;2022-08-19T02:37:42;20.05;;;15.32;;
71046;SDS011;58703;48.978;8.982;2022-08-19T02:40:29;22.63;;;15.43;;
71046;SDS011;58703;48.978;8.982;2022-08-19T02:42:58;20.77;;;15.32;;
71046;SDS011;58703;48.978;8.982;2022-08-19T02:45:24;20.40;;;15.27;;
71046;SDS011;58703;48.978;8.982;2022-08-19T02:47:49;21.63;;;15.90;;
71046;SDS011;58703;48.978;8.982;2022-08-19T02:50:15;20.75;;;15.98;;
71046;SDS011;58703;48.978;8.982;2022-08-19T02:52:41;21.43;;;16.07;;
71046;SDS011;58703;48.978;8.982;2022-08-19T02:55:06;23.53;;;15.80;;
71046;SDS011;58703;48.978;8.982;2022-08-19T02:57:32;20.30;;;14.77;;
71046;SDS011;58703;48.978;8.982;2022-08-19T02:59:59;20.88;;;15.80;;
71046;SDS011;58703;48.978;8.982;2022-08-19T03:02:25;19.85;;;15.80;;
71046;SDS011;58703;48.978;8.982;2022-08-19T03:04:50;23.03;;;16.43;;
71046;SDS011;58703;48.978;8.982;2022-08-19T03:07:16;23.42;;;16.50;;
71046;SDS011;58703;48.978;8.982;2022-08-19T03:09:43;22.77;;;16.67;;
71046;SDS011;58703;48.978;8.982;2022-08-19T03:12:09;20.67;;;16.02;;
71046;SDS011;58703;48.978;8.982;2022-08-19T03:14:35;19.80;;;15.23;;
71046;SDS011;58703;48.978;8.982;2022-08-19T03:17:02;20.60;;;15.85;;
71046;SDS011;58703;48.978;8.982;2022-08-19T03:19:29;22.15;;;16.10;;
71046;SDS011;58703;48.978;8.982;2022-08-19T03:21:57;22.93;;;17.10;;
71046;SDS011;58703;48.978;8.982;2022-08-19T03:24:23;23.00;;;16.75;;
71046;SDS011;58703;48.978;8.982;2022-08-19T03:26:51;22.70;;;17.05;;
71046;SDS011;58703;48.978;8.982;2022-08-19T03:29:20;22.25;;;15.95;;
71046;SDS011;58703;48.978;8.982;2022-08-19T03:31:46;21.47;;;17.23;;
71046;SDS011;58703;48.978;8.982;2022-08-19T03:34:12;21.15;;;16.50;;
71046;SDS011;58703;48.978;8.982;2022-08-19T03:36:40;22.00;;;16.80;;
71046;SDS011;58703;48.978;8.982;2022-08-19T03:39:06;24.33;;;17.52;;
71046;SDS011;58703;48.978;8.982;2022-08-19T03:41:36;24.08;;;17.15;;
71046;SDS011;58703;48.978;8.982;2022-08-19T03:44:03;23.58;;;17.98;;
71046;SDS011;58703;48.978;8.982;2022-08-19T03:46:30;24.60;;;18.38;;
71046;SDS011;58703;48.978;8.982;2022-08-19T03:48:59;27.20;;;19.23;;
71046;SDS011;58703;48.978;8.982;2022-08-19T03:51:26;23.13;;;17.67;;
71046;SDS011;58703;48.978;8.982;2022-08-19T03:53:54;28.52;;;18.20;;
71046;SDS011;58703;48.978;8.982;2022-08-19T03:56:20;23.55;;;18.00;;
71046;SDS011;58703;48.978;8.982;2022-08-19T03:58:47;24.88;;;18.15;;
71046;SDS011;58703;48.978;8.982;2022-08-19T04:01:14;27.23;;;18.67;;
71046;SDS011;58703;48.978;8.982;2022-08-19T04:03:42;23.40;;;17.77;;
71046;SDS011;58703;48.978;8.982;2022-08-19T04:06:10;24.27;;;18.73;;
71046;SDS011;58703;48.978;8.982;2022-08-19T04:08:47;25.02;;;18.52;;
71046;SDS011;58703;48.978;8.982;2022-08-19T04:11:20;26.07;;;19.17;;
71046;SDS011;58703;48.978;8.982;2022-08-19T04:13:50;25.17;;;18.83;;
71046;SDS011;58703;48.978;8.982;2022-08-19T04:16:18;23.95;;;18.08;;
71046;SDS011;58703;48.978;8.982;2022-08-19T04:18:45;23.95;;;18.13;;
71046;SDS011;58703;48.978;8.982;2022-08-19T04:21:18;25.85;;;18.70;;
71046;SDS011;58703;48.978;8.982;2022-08-19T04:23:49;22.03;;;17.00;;
71046;SDS011;58703;48.978;8.982;2022-08-19T04:26:16;22.20;;;18.10;;
71046;SDS011;58703;48.978;8.982;2022-08-19T04:28:44;22.90;;;17.25;;
71046;SDS011;58703;48.978;8.982;2022-08-19T04:31:18;23.05;;;18.52;;
71046;SDS011;58703;48.978;8.982;2022-08-19T04:33:46;22.30;;;17.97;;
71046;SDS011;58703;48.978;8.982;2022-08-19T04:36:16;23.50;;;18.08;;
71046;SDS011;58703;48.978;8.982;2022-08-19T04:38:45;23.05;;;18.05;;
71046;SDS011;58703;48.978;8.982;2022-08-19T04:41:11;26.83;;;18.58;;
71046;SDS011;58703;48.978;8.982;2022-08-19T04:43:56;25.92;;;18.02;;
71046;SDS011;58703;48.978;8.982;2022-08-19T04:46:22;25.37;;;18.50;;
71046;SDS011;58703;48.978;8.982;2022-08-19T04:48:47;23.30;;;18.67;;
71046;SDS011;58703;48.978;8.982;2022-08-19T04:51:13;22.03;;;18.27;;
71046;SDS011;58703;48.978;8.982;2022-08-19T04:53:39;24.08;;;19.05;;
71046;SDS011;58703;48.978;8.982;2022-08-19T04:56:10;25.67;;;19.27;;
71046;SDS011;58703;48.978;8.982;2022-08-19T04:58:38;24.08;;;19.40;;
71046;SDS011;58703;48.978;8.982;2022-08-19T05:01:07;26.58;;;19.33;;
71046;SDS011;58703;48.978;8.982;2022-08-19T05:03:35;25.17;;;19.15;;
71046;SDS011;58703;48.978;8.982;2022-08-19T05:06:08;23.58;;;19.33;;
71046;SDS011;58703;48.978;8.982;2022-08-19T05:08:36;24.13;;;19.50;;
71046;SDS011;58703;48.978;8.982;2022-08-19T05:11:15;27.15;;;18.42;;
71046;SDS011;58703;48.978;8.982;2022-08-19T05:13:43;24.58;;;17.67;;
71046;SDS011;58703;48.978;8.982;2022-08-19T05:16:09;26.33;;;19.23;;
71046;SDS011;58703;48.978;8.982;2022-08-19T05:18:36;26.92;;;20.17;;
71046;SDS011;58703;48.978;8.982;2022-08-19T05:21:21;27.50;;;19.27;;
71046;SDS011;58703;48.978;8.982;2022-08-19T05:24:05;26.33;;;19.05;;
71046;SDS011;58703;48.978;8.982;2022-08-19T05:26:38;24.98;;;19.50;;
71046;SDS011;58703;48.978;8.982;2022-08-19T05:29:05;26.27;;;20.35;;
71046;SDS011;58703;48.978;8.982;2022-08-19T05:31:32;24.17;;;18.85;;
71046;SDS011;58703;48.978;8.982;2022-08-19T05:33:58;26.17;;;18.97;;
71046;SDS011;58703;48.978;8.982;2022-08-19T05:36:25;23.23;;;19.05;;
71046;SDS011;58703;48.978;8.982;2022-08-19T05:38:51;28.98;;;20.52;;
71046;SDS011;58703;48.978;8.982;2022-08-19T05:41:18;25.20;;;19.73;;
71046;SDS011;58703;48.978;8.982;2022-08-19T05:43:46;24.45;;;18.80;;
71046;SDS011;58703;48.978;8.982;2022-08-19T05:46:18;26.57;;;18.57;;
71046;SDS011;58703;48.978;8.982;2022-08-19T05:48:44;27.55;;;19.83;;
71046;SDS011;58703;48.978;8.982;2022-08-19T05:51:10;32.07;;;19.40;;
71046;SDS011;58703;48.978;8.982;2022-08-19T05:53:36;27.33;;;18.53;;
71046;SDS011;58703;48.978;8.982;2022-08-19T05:56:05;24.55;;;19.58;;
71046;SDS011;58703;48.978;8.982;2022-08-19T05:58:33;24.43;;;19.30;;
71046;SDS011;58703;48.978;8.982;2022-08-19T06:00:59;25.88;;;19.73;;
71046;SDS011;58703;48.978;8.982;2022-08-19T06:03:30;26.33;;;20.15;;
71046;SDS011;58703;48.978;8.982;2022-08-19T06:05:57;25.63;;;19.10;;
71046;SDS011;58703;48.978;8.982;2022-08-19T06:08:24;26.92;;;19.17;;
71046;SDS011;58703;48.978;8.982;2022-08-19T06:10:51;22.57;;;18.67;;
71046;SDS011;58703;48.978;8.982;2022-08-19T06:13:16;24.85;;;19.30;;
71046;SDS011;58703;48.978;8.982;2022-08-19T06:15:42;25.07;;;18.90;;
71046;SDS011;58703;48.978;8.982;2022-08-19T06:18:09;25.52;;;18.83;;
71046;SDS011;58703;48.978;8.982;2022-08-19T06:20:35;24.63;;;17.90;;
71046;SDS011;58703;48.978;8.982;2022-08-19T06:23:00;25.63;;;18.38;;
71046;SDS011;58703;48.978;8.982;2022-08-19T06:25:26;24.53;;;18.10;;
71046;SDS011;58703;48.978;8.982;2022-08-19T06:27:51;24.88;;;17.95;;
71046;SDS011;58703;48.978;8.982;2022-08-19T06:30:17;25.33;;;17.70;;
71046;SDS011;58703;48.978;8.982;2022-08-19T06:32:43;24.65;;;18.13;;
71046;SDS011;58703;48.978;8.982;2022-08-19T06:35:09;25.13;;;18.20;;
71046;SDS011;58703;48.978;8.982;2022-08-19T06:37:36;23.25;;;18.10;;
71046;SDS011;58703;48.978;8.982;2022-08-19T06:40:02;22.13;;;18.23;;
71046;SDS011;58703;48.978;8.982;2022-08-19T06:42:29;23.20;;;18.13;;
71046;SDS011;58703;48.978;8.982;2022-08-19T06:44:55;22.17;;;17.90;;
71046;SDS011;58703;48.978;8.982;2022-08-19T06:47:21;22.75;;;17.83;;
71046;SDS011;58703;48.978;8.982;2022-08-19T06:49:47;20.88;;;17.15;;
71046;SDS011;58703;48.978;8.982;2022-08-19T06:52:12;21.93;;;17.53;;
71046;SDS011;58703;48.978;8.982;2022-08-19T06:54:40;20.90;;;17.35;;
71046;SDS011;58703;48.978;8.982;2022-08-19T06:57:07;23.52;;;18.42;;
71046;SDS011;58703;48.978;8.982;2022-08-19T06:59:38;23.30;;;16.97;;
71046;SDS011;58703;48.978;8.982;2022-08-19T07:02:05;22.23;;;16.95;;
71046;SDS011;58703;48.978;8.982;2022-08-19T07:04:33;22.42;;;16.67;;
71046;SDS011;58703;48.978;8.982;2022-08-19T07:07:01;19.90;;;16.85;;
71046;SDS011;58703;48.978;8.982;2022-08-19T07:09:33;20.33;;;16.88;;
71046;SDS011;58703;48.978;8.982;2022-08-19T07:12:02;19.97;;;16.30;;
71046;SDS011;58703;48.978;8.982;2022-08-19T07:14:29;18.70;;;15.82;;
71046;SDS011;58703;48.978;8.982;2022-08-19T07:16:55;19.07;;;15.07;;
71046;SDS011;58703;48.978;8.982;2022-08-19T07:19:23;20.33;;;15.80;;
71046;SDS011;58703;48.978;8.982;2022-08-19T07:21:51;20.58;;;17.08;;
71046;SDS011;58703;48.978;8.982;2022-08-19T07:24:20;19.85;;;15.32;;
71046;SDS011;58703;48.978;8.982;2022-08-19T07:26:49;22.30;;;16.02;;
71046;SDS011;58703;48.978;8.982;2022-08-19T07:29:16;17.17;;;15.30;;
71046;SDS011;58703;48.978;8.982;2022-08-19T07:31:42;20.00;;;16.23;;
71046;SDS011;58703;48.978;8.982;2022-08-19T07:34:08;20.17;;;15.45;;
71046;SDS011;58703;48.978;8.982;2022-08-19T07:36:37;18.87;;;15.23;;
71046;SDS011;58703;48.978;8.982;2022-08-19T07:39:10;20.13;;;15.63;;
71046;SDS011;58703;48.978;8.982;2022-08-19T07:41:38;20.90;;;16.55;;
71046;SDS011;58703;48.978;8.982;2022-08-19T07:44:04;17.15;;;14.65;;
71046;SDS011;58703;48.978;8.982;2022-08-19T07:46:36;19.63;;;15.35;;
71046;SDS011;58703;48.978;8.982;2022-08-19T07:49:04;18.03;;;15.13;;
71046;SDS011;58703;48.978;8.982;2022-08-19T07:51:31;20.35;;;15.73;;
71046;SDS011;58703;48.978;8.982;2022-08-19T07:53:56;19.65;;;14.82;;
71046;SDS011;58703;48.978;8.982;2022-08-19T07:56:22;20.73;;;14.77;;
71046;SDS011;58703;48.978;8.982;2022-08-19T07:58:49;18.85;;;15.77;;
71046;SDS011;58703;48.978;8.982;2022-08-19T08:01:18;21.27;;;14.55;;
71046;SDS011;58703;48.978;8.982;2022-08-19T08:03:46;20.02;;;14.57;;
71046;SDS011;58703;48.978;8.982;2022-08-19T08:06:34;17.63;;;14.63;;
71046;SDS011;58703;48.978;8.982;2022-08-19T08:09:23;16.92;;;14.57;;
71046;SDS011;58703;48.978;8.982;2022-08-19T08:11:56;17.67;;;14.10;;
71046;SDS011;58703;48.978;8.982;2022-08-19T08:14:26;17.40;;;14.43;;
71046;SDS011;58703;48.978;8.982;2022-08-19T08:16:56;16.75;;;14.95;;
71046;SDS011;58703;48.978;8.982;2022-08-19T08:19:23;17.63;;;12.33;;
71046;SDS011;58703;48.978;8.982;2022-08-19T08:21:50;20.40;;;13.50;;
71046;SDS011;58703;48.978;8.982;2022-08-19T08:24:16;14.88;;;12.65;;
71046;SDS011;58703;48.978;8.982;2022-08-19T08:26:42;18.83;;;12.60;;
71046;SDS011;58703;48.978;8.982;2022-08-19T08:29:13;14.43;;;12.68;;
71046;SDS011;58703;48.978;8.982;2022-08-19T08:31:40;14.83;;;12.30;;
71046;SDS011;58703;48.978;8.982;2022-08-19T08:34:08;16.73;;;12.52;;
71046;SDS011;58703;48.978;8.982;2022-08-19T08:36:38;16.15;;;12.90;;
71046;SDS011;58703;48.978;8.982;2022-08-19T08:39:10;14.80;;;12.90;;
71046;SDS011;58703;48.978;8.982;2022-08-19T08:41:44;14.40;;;12.68;;
71046;SDS011;58703;48.978;8.982;2022-08-19T08:44:20;19.17;;;13.17;;
71046;SDS011;58703;48.978;8.982;2022-08-19T08:46:55;14.73;;;11.98;;
71046;SDS011;58703;48.978;8.982;2022-08-19T08:49:27;15.65;;;12.65;;
71046;SDS011;58703;48.978;8.982;2022-08-19T08:51:57;15.02;;;12.98;;
71046;SDS011;58703;48.978;8.982;2022-08-19T08:54:32;17.70;;;11.57;;
71046;SDS011;58703;48.978;8.982;2022-08-19T08:57:10;16.23;;;12.13;;
71046;SDS011;58703;48.978;8.982;2022-08-19T08:59:40;15.52;;;11.73;;
71046;SDS011;58703;48.978;8.982;2022-08-19T09:02:08;13.52;;;12.18;;
71046;SDS011;58703;48.978;8.982;2022-08-19T09:04:35;16.80;;;11.48;;
71046;SDS011;58703;48.978;8.982;2022-08-19T09:09:40;14.67;;;11.60;;
71046;SDS011;58703;48.978;8.982;2022-08-19T09:12:10;13.55;;;10.65;;
71046;SDS011;58703;48.978;8.982;2022-08-19T09:15:04;12.25;;;10.93;;
71046;SDS011;58703;48.978;8.982;2022-08-19T09:17:33;14.00;;;10.63;;
71046;SDS011;58703;48.978;8.982;2022-08-19T09:22:27;15.20;;;11.10;;
71046;SDS011;58703;48.978;8.982;2022-08-19T09:24:53;17.98;;;10.75;;
71046;SDS011;58703;48.978;8.982;2022-08-19T09:27:20;14.00;;;10.87;;
71046;SDS011;58703;48.978;8.982;2022-08-19T09:29:49;14.25;;;11.27;;
71046;SDS011;58703;48.978;8.982;2022-08-19T09:32:15;13.90;;;9.98;;
71046;SDS011;58703;48.978;8.982;2022-08-19T09:34:41;12.75;;;10.50;;
71046;SDS011;58703;48.978;8.982;2022-08-19T09:37:06;12.97;;;9.47;;
71046;SDS011;58703;48.978;8.982;2022-08-19T09:39:32;11.38;;;9.95;;
71046;SDS011;58703;48.978;8.982;2022-08-19T09:41:57;11.00;;;9.30;;
71046;SDS011;58703;48.978;8.982;2022-08-19T09:44:23;12.93;;;9.80;;
71046;SDS011;58703;48.978;8.982;2022-08-19T09:46:49;10.90;;;9.80;;
71046;SDS011;58703;48.978;8.982;2022-08-19T09:49:17;15.00;;;10.52;;
71046;SDS011;58703;48.978;8.982;2022-08-19T09:51:43;14.90;;;10.10;;
71046;SDS011;58703;48.978;8.982;2022-08-19T09:54:09;13.50;;;9.67;;
71046;SDS011;58703;48.978;8.982;2022-08-19T09:56:35;14.63;;;10.10;;
71046;SDS011;58703;48.978;8.982;2022-08-19T09:59:01;13.13;;;9.33;;
71046;SDS011;58703;48.978;8.982;2022-08-19T10:01:29;13.95;;;9.43;;
71046;SDS011;58703;48.978;8.982;2022-08-19T10:03:57;14.18;;;9.10;;
71046;SDS011;58703;48.978;8.982;2022-08-19T10:06:24;9.97;;;8.93;;
71046;SDS011;58703;48.978;8.982;2022-08-19T10:08:55;10.65;;;8.23;;
71046;SDS011;58703;48.978;8.982;2022-08-19T10:11:21;9.43;;;8.45;;
71046;SDS011;58703;48.978;8.982;2022-08-19T10:13:47;10.30;;;9.03;;
71046;SDS011;58703;48.978;8.982;2022-08-19T10:16:15;13.37;;;9.00;;
71046;SDS011;58703;48.978;8.982;2022-08-19T10:18:45;10.80;;;8.23;;
71046;SDS011;58703;48.978;8.982;2022-08-19T10:23:39;11.32;;;8.05;;
71046;SDS011;58703;48.978;8.982;2022-08-19T10:26:10;9.63;;;7.85;;
71046;SDS011;58703;48.978;8.982;2022-08-19T10:28:37;10.73;;;7.73;;
71046;SDS011;58703;48.978;8.982;2022-08-19T10:31:04;9.93;;;7.78;;
71046;SDS011;58703;48.978;8.982;2022-08-19T10:33:34;12.20;;;7.93;;
71046;SDS011;58703;48.978;8.982;2022-08-19T10:36:02;10.82;;;7.20;;
71046;SDS011;58703;48.978;8.982;2022-08-19T10:38:37;8.63;;;6.97;;
71046;SDS011;58703;48.978;8.982;2022-08-19T10:41:07;9.07;;;7.60;;
71046;SDS011;58703;48.978;8.982;2022-08-19T10:43:37;11.23;;;7.80;;
71046;SDS011;58703;48.978;8.982;2022-08-19T10:46:04;9.70;;;8.13;;
71046;SDS011;58703;48.978;8.982;2022-08-19T10:48:33;9.52;;;7.32;;
71046;SDS011;58703;48.978;8.982;2022-08-19T10:51:00;9.57;;;7.33;;
71046;SDS011;58703;48.978;8.982;2022-08-19T10:53:44;10.45;;;7.38;;
71046;SDS011;58703;48.978;8.982;2022-08-19T10:56:10;9.27;;;7.00;;
71046;SDS011;58703;48.978;8.982;2022-08-19T10:58:56;10.63;;;7.30;;
71046;SDS011;58703;48.978;8.982;2022-08-19T11:01:23;8.98;;;7.57;;
71046;SDS011;58703;48.978;8.982;2022-08-19T11:03:49;9.35;;;7.10;;
71046;SDS011;58703;48.978;8.982;2022-08-19T11:06:15;8.00;;;7.20;;
71046;SDS011;58703;48.978;8.982;2022-08-19T11:08:41;9.73;;;7.25;;
71046;SDS011;58703;48.978;8.982;2022-08-19T11:11:07;8.32;;;6.97;;
71046;SDS011;58703;48.978;8.982;2022-08-19T11:13:35;8.68;;;6.30;;
71046;SDS011;58703;48.978;8.982;2022-08-19T11:16:03;8.27;;;6.17;;
71046;SDS011;58703;48.978;8.982;2022-08-19T11:18:35;6.45;;;5.68;;
71046;SDS011;58703;48.978;8.982;2022-08-19T11:21:10;6.43;;;5.70;;
71046;SDS011;58703;48.978;8.982;2022-08-19T11:23:38;7.72;;;6.20;;
71046;SDS011;58703;48.978;8.982;2022-08-19T11:26:04;7.37;;;5.87;;
71046;SDS011;58703;48.978;8.982;2022-08-19T11:28:30;9.43;;;6.13;;
71046;SDS011;58703;48.978;8.982;2022-08-19T11:30:55;9.40;;;6.67;;
71046;SDS011;58703;48.978;8.982;2022-08-19T11:33:21;7.00;;;5.78;;
71046;SDS011;58703;48.978;8.982;2022-08-19T11:35:47;7.43;;;5.17;;
71046;SDS011;58703;48.978;8.982;2022-08-19T11:38:12;6.33;;;5.33;;
71046;SDS011;58703;48.978;8.982;2022-08-19T11:40:39;5.80;;;4.53;;
71046;SDS011;58703;48.978;8.982;2022-08-19T11:43:07;6.68;;;4.13;;
71046;SDS011;58703;48.978;8.982;2022-08-19T11:45:34;4.15;;;3.58;;
71046;SDS011;58703;48.978;8.982;2022-08-19T11:48:00;4.72;;;4.25;;
71046;SDS011;58703;48.978;8.982;2022-08-19T11:50:27;4.50;;;4.10;;
71046;SDS011;58703;48.978;8.982;2022-08-19T11:52:55;6.30;;;4.00;;
71046;SDS011;58703;48.978;8.982;2022-08-19T11:55:22;7.70;;;4.25;;
71046;SDS011;58703;48.978;8.982;2022-08-19T11:57:48;5.05;;;4.45;;
71046;SDS011;58703;48.978;8.982;2022-08-19T12:00:14;5.97;;;4.03;;
71046;SDS011;58703;48.978;8.982;2022-08-19T12:02:40;4.85;;;4.32;;
71046;SDS011;58703;48.978;8.982;2022-08-19T12:05:06;5.63;;;4.10;;
71046;SDS011;58703;48.978;8.982;2022-08-19T12:07:32;4.55;;;4.15;;
71046;SDS011;58703;48.978;8.982;2022-08-19T12:09:59;4.25;;;3.40;;
71046;SDS011;58703;48.978;8.982;2022-08-19T12:12:25;4.28;;;3.92;;
71046;SDS011;58703;48.978;8.982;2022-08-19T12:14:52;5.57;;;4.05;;
71046;SDS011;58703;48.978;8.982;2022-08-19T12:17:22;5.30;;;4.73;;
71046;SDS011;58703;48.978;8.982;2022-08-19T12:19:48;6.93;;;4.68;;
71046;SDS011;58703;48.978;8.982;2022-08-19T12:22:14;4.63;;;4.22;;
71046;SDS011;58703;48.978;8.982;2022-08-19T12:24:40;6.63;;;4.63;;
71046;SDS011;58703;48.978;8.982;2022-08-19T12:27:05;5.90;;;4.30;;
71046;SDS011;58703;48.978;8.982;2022-08-19T12:29:31;4.97;;;4.47;;
71046;SDS011;58703;48.978;8.982;2022-08-19T12:31:57;5.00;;;4.60;;
71046;SDS011;58703;48.978;8.982;2022-08-19T12:34:27;6.97;;;4.35;;
71046;SDS011;58703;48.978;8.982;2022-08-19T12:36:56;4.90;;;4.47;;
71046;SDS011;58703;48.978;8.982;2022-08-19T12:39:22;4.60;;;4.20;;
71046;SDS011;58703;48.978;8.982;2022-08-19T12:41:49;7.10;;;4.10;;
71046;SDS011;58703;48.978;8.982;2022-08-19T12:44:15;4.70;;;4.30;;
71046;SDS011;58703;48.978;8.982;2022-08-19T12:46:41;5.60;;;4.50;;
71046;SDS011;58703;48.978;8.982;2022-08-19T12:49:07;5.85;;;5.20;;
71046;SDS011;58703;48.978;8.982;2022-08-19T12:51:33;6.13;;;5.20;;
71046;SDS011;58703;48.978;8.982;2022-08-19T12:53:58;6.03;;;5.40;;
71046;SDS011;58703;48.978;8.982;2022-08-19T12:56:24;7.18;;;5.20;;
71046;SDS011;58703;48.978;8.982;2022-08-19T12:58:50;6.68;;;5.68;;
71046;SDS011;58703;48.978;8.982;2022-08-19T13:01:16;6.50;;;5.37;;
71046;SDS011;58703;48.978;8.982;2022-08-19T13:03:42;6.00;;;5.40;;
71046;SDS011;58703;48.978;8.982;2022-08-19T13:06:10;9.07;;;6.07;;
71046;SDS011;58703;48.978;8.982;2022-08-19T13:08:36;8.43;;;5.90;;
71046;SDS011;58703;48.978;8.982;2022-08-19T13:11:13;6.73;;;6.00;;
71046;SDS011;58703;48.978;8.982;2022-08-19T13:13:41;10.10;;;5.82;;
71046;SDS011;58703;48.978;8.982;2022-08-19T13:16:08;7.10;;;6.40;;
71046;SDS011;58703;48.978;8.982;2022-08-19T13:18:36;7.28;;;6.60;;
71046;SDS011;58703;48.978;8.982;2022-08-19T13:21:07;6.97;;;6.18;;
71046;SDS011;58703;48.978;8.982;2022-08-19T13:23:34;10.63;;;6.37;;
71046;SDS011;58703;48.978;8.982;2022-08-19T13:26:05;7.22;;;6.32;;
71046;SDS011;58703;48.978;8.982;2022-08-19T13:28:31;8.93;;;6.82;;
71046;SDS011;58703;48.978;8.982;2022-08-19T13:31:17;8.65;;;6.72;;
71046;SDS011;58703;48.978;8.982;2022-08-19T13:34:02;8.90;;;6.95;;
71046;SDS011;58703;48.978;8.982;2022-08-19T13:36:28;8.30;;;6.43;;
71046;SDS011;58703;48.978;8.982;2022-08-19T13:38:54;6.97;;;6.28;;
71046;SDS011;58703;48.978;8.982;2022-08-19T13:41:19;7.23;;;6.40;;
71046;SDS011;58703;48.978;8.982;2022-08-19T13:43:45;7.45;;;6.82;;
71046;SDS011;58703;48.978;8.982;2022-08-19T13:46:11;6.88;;;6.00;;
71046;SDS011;58703;48.978;8.982;2022-08-19T13:48:39;6.80;;;6.17;;
71046;SDS011;58703;48.978;8.982;2022-08-19T13:51:06;10.07;;;6.68;;
71046;SDS011;58703;48.978;8.982;2022-08-19T13:53:38;6.38;;;5.43;;
71046;SDS011;58703;48.978;8.982;2022-08-19T13:56:05;7.43;;;5.47;;
71046;SDS011;58703;48.978;8.982;2022-08-19T13:58:32;7.68;;;4.72;;
71046;SDS011;58703;48.978;8.982;2022-08-19T14:00:58;8.63;;;5.30;;
71046;SDS011;58703;48.978;8.982;2022-08-19T14:03:24;5.50;;;4.72;;
71046;SDS011;58703;48.978;8.982;2022-08-19T14:05:50;6.45;;;5.03;;
71046;SDS011;58703;48.978;8.982;2022-08-19T14:08:16;6.17;;;5.57;;
71046;SDS011;58703;48.978;8.982;2022-08-19T14:10:43;6.95;;;5.35;;
71046;SDS011;58703;48.978;8.982;2022-08-19T14:13:10;5.70;;;5.20;;
71046;SDS011;58703;48.978;8.982;2022-08-19T14:15:38;5.47;;;4.97;;
71046;SDS011;58703;48.978;8.982;2022-08-19T14:18:03;5.83;;;5.03;;
71046;SDS011;58703;48.978;8.982;2022-08-19T14:20:29;9.23;;;5.10;;
71046;SDS011;58703;48.978;8.982;2022-08-19T14:22:55;5.20;;;4.80;;
71046;SDS011;58703;48.978;8.982;2022-08-19T14:25:24;5.40;;;4.90;;
71046;SDS011;58703;48.978;8.982;2022-08-19T14:27:53;5.47;;;4.97;;
71046;SDS011;58703;48.978;8.982;2022-08-19T14:30:20;5.25;;;4.43;;
71046;SDS011;58703;48.978;8.982;2022-08-19T14:32:48;4.83;;;4.37;;
71046;SDS011;58703;48.978;8.982;2022-08-19T14:35:14;5.05;;;4.55;;
71046;SDS011;58703;48.978;8.982;2022-08-19T14:37:41;5.05;;;4.38;;
71046;SDS011;58703;48.978;8.982;2022-08-19T14:40:07;5.63;;;4.07;;